sensor_id;sensor_type;location;lat;lon;timestamp;P1;durP1;ratioP1;P2;durP2;ratioP2
33160;SDS011;19522;45.656;11.302;2022-09-21T00:01:06;2.70;;;0.90;;
33160;SDS011;19522;45.656;11.302;2022-09-21T00:03:33;1.55;;;0.80;;
33160;SDS011;19522;45.656;11.302;2022-09-21T00:06:33;2.30;;;0.90;;
33160;SDS011;19522;45.656;11.302;2022-09-21T00:08:53;3.40;;;0.95;;
33160;SDS011;19522;45.656;11.302;2022-09-21T00:11:21;2.00;;;0.80;;
33160;SDS011;19522;45.656;11.302;2022-09-21T00:13:52;2.58;;;0.85;;
33160;SDS011;19522;45.656;11.302;2022-09-21T00:16:19;3.88;;;1.10;;
33160;SDS011;19522;45.656;11.302;2022-09-21T00:18:45;1.90;;;0.75;;
33160;SDS011;19522;45.656;11.302;2022-09-21T00:21:13;2.42;;;1.10;;
33160;SDS011;19522;45.656;11.302;2022-09-21T00:23:42;2.25;;;1.00;;
33160;SDS011;19522;45.656;11.302;2022-09-21T00:26:10;2.22;;;0.93;;
33160;SDS011;19522;45.656;11.302;2022-09-21T00:28:37;2.55;;;1.05;;
33160;SDS011;19522;45.656;11.302;2022-09-21T00:31:04;4.35;;;1.23;;
33160;SDS011;19522;45.656;11.302;2022-09-21T00:33:32;1.40;;;0.80;;
33160;SDS011;19522;45.656;11.302;2022-09-21T00:36:02;1.42;;;0.73;;
33160;SDS011;19522;45.656;11.302;2022-09-21T00:38:32;2.00;;;1.10;;
33160;SDS011;19522;45.656;11.302;2022-09-21T00:40:58;1.60;;;0.90;;
33160;SDS011;19522;45.656;11.302;2022-09-21T00:43:24;3.22;;;0.98;;
33160;SDS011;19522;45.656;11.302;2022-09-21T00:45:52;3.15;;;0.85;;
33160;SDS011;19522;45.656;11.302;2022-09-21T00:48:26;2.95;;;1.55;;
33160;SDS011;19522;45.656;11.302;2022-09-21T00:50:53;2.08;;;1.17;;
33160;SDS011;19522;45.656;11.302;2022-09-21T00:53:22;1.92;;;0.98;;
33160;SDS011;19522;45.656;11.302;2022-09-21T00:55:49;3.67;;;1.00;;
33160;SDS011;19522;45.656;11.302;2022-09-21T00:58:18;2.42;;;1.23;;
33160;SDS011;19522;45.656;11.302;2022-09-21T01:00:49;2.70;;;1.10;;
33160;SDS011;19522;45.656;11.302;2022-09-21T01:03:16;3.17;;;1.15;;
33160;SDS011;19522;45.656;11.302;2022-09-21T01:05:41;2.35;;;1.50;;
33160;SDS011;19522;45.656;11.302;2022-09-21T01:08:08;2.10;;;1.08;;
33160;SDS011;19522;45.656;11.302;2022-09-21T01:10:40;2.38;;;1.10;;
33160;SDS011;19522;45.656;11.302;2022-09-21T01:13:26;3.13;;;1.45;;
33160;SDS011;19522;45.656;11.302;2022-09-21T01:16:14;2.00;;;0.80;;
33160;SDS011;19522;45.656;11.302;2022-09-21T01:21:45;1.95;;;1.08;;
33160;SDS011;19522;45.656;11.302;2022-09-21T01:24:44;2.35;;;1.02;;
33160;SDS011;19522;45.656;11.302;2022-09-21T01:32:43;2.17;;;0.85;;
33160;SDS011;19522;45.656;11.302;2022-09-21T01:35:16;3.45;;;1.05;;
33160;SDS011;19522;45.656;11.302;2022-09-21T01:38:08;3.00;;;1.00;;
33160;SDS011;19522;45.656;11.302;2022-09-21T01:40:50;1.30;;;0.70;;
33160;SDS011;19522;45.656;11.302;2022-09-21T01:43:20;2.65;;;0.88;;
33160;SDS011;19522;45.656;11.302;2022-09-21T01:45:49;3.10;;;1.00;;
33160;SDS011;19522;45.656;11.302;2022-09-21T01:48:19;1.63;;;1.00;;
33160;SDS011;19522;45.656;11.302;2022-09-21T01:50:49;2.08;;;0.90;;
33160;SDS011;19522;45.656;11.302;2022-09-21T01:55:51;3.10;;;0.80;;
33160;SDS011;19522;45.656;11.302;2022-09-21T01:58:34;0.80;;;0.40;;
33160;SDS011;19522;45.656;11.302;2022-09-21T02:01:03;1.20;;;0.80;;
33160;SDS011;19522;45.656;11.302;2022-09-21T02:05:57;1.58;;;0.75;;
33160;SDS011;19522;45.656;11.302;2022-09-21T02:08:25;1.52;;;0.70;;
33160;SDS011;19522;45.656;11.302;2022-09-21T02:10:51;1.00;;;0.60;;
33160;SDS011;19522;45.656;11.302;2022-09-21T02:13:18;1.30;;;0.63;;
33160;SDS011;19522;45.656;11.302;2022-09-21T02:19:40;2.58;;;0.70;;
33160;SDS011;19522;45.656;11.302;2022-09-21T02:27:12;1.58;;;0.60;;
33160;SDS011;19522;45.656;11.302;2022-09-21T02:34:52;1.27;;;0.63;;
33160;SDS011;19522;45.656;11.302;2022-09-21T02:42:56;1.95;;;0.57;;
33160;SDS011;19522;45.656;11.302;2022-09-21T02:45:29;2.20;;;0.60;;
33160;SDS011;19522;45.656;11.302;2022-09-21T02:48:08;1.17;;;0.68;;
33160;SDS011;19522;45.656;11.302;2022-09-21T02:53:38;2.13;;;0.55;;
33160;SDS011;19522;45.656;11.302;2022-09-21T02:56:05;1.67;;;0.60;;
33160;SDS011;19522;45.656;11.302;2022-09-21T02:58:34;1.95;;;0.70;;
33160;SDS011;19522;45.656;11.302;2022-09-21T03:01:04;1.15;;;0.50;;
33160;SDS011;19522;45.656;11.302;2022-09-21T03:03:33;2.92;;;0.80;;
33160;SDS011;19522;45.656;11.302;2022-09-21T03:05:59;0.90;;;0.60;;
33160;SDS011;19522;45.656;11.302;2022-09-21T03:08:26;0.70;;;0.52;;
33160;SDS011;19522;45.656;11.302;2022-09-21T03:10:52;1.00;;;0.60;;
33160;SDS011;19522;45.656;11.302;2022-09-21T03:13:17;0.80;;;0.60;;
33160;SDS011;19522;45.656;11.302;2022-09-21T03:15:43;1.85;;;0.63;;
33160;SDS011;19522;45.656;11.302;2022-09-21T03:18:12;1.42;;;0.55;;
33160;SDS011;19522;45.656;11.302;2022-09-21T03:20:39;2.80;;;0.82;;
33160;SDS011;19522;45.656;11.302;2022-09-21T03:23:09;1.85;;;0.52;;
33160;SDS011;19522;45.656;11.302;2022-09-21T03:25:34;0.88;;;0.40;;
33160;SDS011;19522;45.656;11.302;2022-09-21T03:28:00;1.40;;;0.60;;
33160;SDS011;19522;45.656;11.302;2022-09-21T03:30:26;1.40;;;0.50;;
33160;SDS011;19522;45.656;11.302;2022-09-21T03:32:53;1.35;;;0.52;;
33160;SDS011;19522;45.656;11.302;2022-09-21T03:35:20;1.70;;;0.50;;
33160;SDS011;19522;45.656;11.302;2022-09-21T03:37:48;2.03;;;0.60;;
33160;SDS011;19522;45.656;11.302;2022-09-21T03:40:14;1.02;;;0.50;;
33160;SDS011;19522;45.656;11.302;2022-09-21T03:42:41;2.25;;;0.63;;
33160;SDS011;19522;45.656;11.302;2022-09-21T03:45:08;1.38;;;0.50;;
33160;SDS011;19522;45.656;11.302;2022-09-21T03:47:35;0.80;;;0.45;;
33160;SDS011;19522;45.656;11.302;2022-09-21T03:50:01;2.22;;;0.70;;
33160;SDS011;19522;45.656;11.302;2022-09-21T03:52:27;1.42;;;0.63;;
33160;SDS011;19522;45.656;11.302;2022-09-21T03:54:52;2.03;;;0.63;;
33160;SDS011;19522;45.656;11.302;2022-09-21T03:57:19;1.23;;;0.57;;
33160;SDS011;19522;45.656;11.302;2022-09-21T03:59:48;0.82;;;0.60;;
33160;SDS011;19522;45.656;11.302;2022-09-21T04:02:14;2.58;;;0.50;;
33160;SDS011;19522;45.656;11.302;2022-09-21T04:04:40;1.27;;;0.65;;
33160;SDS011;19522;45.656;11.302;2022-09-21T04:07:06;2.60;;;0.60;;
33160;SDS011;19522;45.656;11.302;2022-09-21T04:09:31;1.65;;;0.60;;
33160;SDS011;19522;45.656;11.302;2022-09-21T04:11:56;0.85;;;0.45;;
33160;SDS011;19522;45.656;11.302;2022-09-21T04:14:22;0.82;;;0.55;;
33160;SDS011;19522;45.656;11.302;2022-09-21T04:16:48;1.08;;;0.50;;
33160;SDS011;19522;45.656;11.302;2022-09-21T04:19:16;2.15;;;0.80;;
33160;SDS011;19522;45.656;11.302;2022-09-21T04:21:42;0.98;;;0.60;;
33160;SDS011;19522;45.656;11.302;2022-09-21T04:24:08;1.00;;;0.57;;
33160;SDS011;19522;45.656;11.302;2022-09-21T04:26:33;1.42;;;0.50;;
33160;SDS011;19522;45.656;11.302;2022-09-21T04:29:00;0.77;;;0.60;;
33160;SDS011;19522;45.656;11.302;2022-09-21T04:31:26;2.45;;;0.60;;
33160;SDS011;19522;45.656;11.302;2022-09-21T04:33:54;0.90;;;0.52;;
33160;SDS011;19522;45.656;11.302;2022-09-21T04:36:22;0.85;;;0.55;;
33160;SDS011;19522;45.656;11.302;2022-09-21T04:38:49;0.88;;;0.50;;
33160;SDS011;19522;45.656;11.302;2022-09-21T04:41:15;2.97;;;1.00;;
33160;SDS011;19522;45.656;11.302;2022-09-21T04:43:42;1.80;;;0.70;;
33160;SDS011;19522;45.656;11.302;2022-09-21T04:46:09;1.95;;;0.50;;
33160;SDS011;19522;45.656;11.302;2022-09-21T04:48:37;1.05;;;0.50;;
33160;SDS011;19522;45.656;11.302;2022-09-21T04:51:03;1.70;;;0.63;;
33160;SDS011;19522;45.656;11.302;2022-09-21T04:53:36;1.20;;;0.77;;
33160;SDS011;19522;45.656;11.302;2022-09-21T04:56:03;3.28;;;0.88;;
33160;SDS011;19522;45.656;11.302;2022-09-21T04:58:30;2.40;;;0.90;;
33160;SDS011;19522;45.656;11.302;2022-09-21T05:00:56;1.40;;;0.65;;
33160;SDS011;19522;45.656;11.302;2022-09-21T05:03:22;2.25;;;0.63;;
33160;SDS011;19522;45.656;11.302;2022-09-21T05:05:50;1.67;;;0.65;;
33160;SDS011;19522;45.656;11.302;2022-09-21T05:08:16;1.67;;;0.80;;
33160;SDS011;19522;45.656;11.302;2022-09-21T05:11:03;2.80;;;0.80;;
33160;SDS011;19522;45.656;11.302;2022-09-21T05:13:29;0.55;;;0.50;;
33160;SDS011;19522;45.656;11.302;2022-09-21T05:15:55;1.10;;;0.57;;
33160;SDS011;19522;45.656;11.302;2022-09-21T05:18:23;1.10;;;0.60;;
33160;SDS011;19522;45.656;11.302;2022-09-21T05:20:55;0.80;;;0.40;;
33160;SDS011;19522;45.656;11.302;2022-09-21T05:23:24;1.95;;;0.80;;
33160;SDS011;19522;45.656;11.302;2022-09-21T05:25:50;3.70;;;0.70;;
33160;SDS011;19522;45.656;11.302;2022-09-21T05:28:17;1.17;;;0.70;;
33160;SDS011;19522;45.656;11.302;2022-09-21T05:31:08;1.95;;;0.70;;
33160;SDS011;19522;45.656;11.302;2022-09-21T05:39:15;1.15;;;0.60;;
33160;SDS011;19522;45.656;11.302;2022-09-21T05:41:41;2.25;;;0.73;;
33160;SDS011;19522;45.656;11.302;2022-09-21T05:44:09;1.65;;;0.70;;
33160;SDS011;19522;45.656;11.302;2022-09-21T05:46:38;0.73;;;0.60;;
33160;SDS011;19522;45.656;11.302;2022-09-21T05:49:16;2.65;;;0.82;;
33160;SDS011;19522;45.656;11.302;2022-09-21T06:00:18;2.58;;;0.80;;
33160;SDS011;19522;45.656;11.302;2022-09-21T06:05:32;2.45;;;0.80;;
33160;SDS011;19522;45.656;11.302;2022-09-21T06:07:58;1.08;;;0.60;;
33160;SDS011;19522;45.656;11.302;2022-09-21T06:10:23;2.20;;;0.70;;
33160;SDS011;19522;45.656;11.302;2022-09-21T06:12:49;1.88;;;0.65;;
33160;SDS011;19522;45.656;11.302;2022-09-21T06:15:15;1.70;;;0.80;;
33160;SDS011;19522;45.656;11.302;2022-09-21T06:17:41;1.50;;;0.80;;
33160;SDS011;19522;45.656;11.302;2022-09-21T06:20:07;1.65;;;0.63;;
33160;SDS011;19522;45.656;11.302;2022-09-21T06:22:33;4.13;;;1.00;;
33160;SDS011;19522;45.656;11.302;2022-09-21T06:24:59;1.45;;;0.75;;
33160;SDS011;19522;45.656;11.302;2022-09-21T06:27:26;1.15;;;0.70;;
33160;SDS011;19522;45.656;11.302;2022-09-21T06:29:55;1.80;;;0.65;;
33160;SDS011;19522;45.656;11.302;2022-09-21T06:32:21;1.58;;;0.82;;
33160;SDS011;19522;45.656;11.302;2022-09-21T06:34:49;2.45;;;1.05;;
33160;SDS011;19522;45.656;11.302;2022-09-21T06:37:15;1.80;;;0.80;;
33160;SDS011;19522;45.656;11.302;2022-09-21T06:39:41;1.42;;;0.90;;
33160;SDS011;19522;45.656;11.302;2022-09-21T06:42:06;1.38;;;0.60;;
33160;SDS011;19522;45.656;11.302;2022-09-21T06:44:32;1.52;;;0.93;;
33160;SDS011;19522;45.656;11.302;2022-09-21T06:46:57;1.45;;;0.63;;
33160;SDS011;19522;45.656;11.302;2022-09-21T06:49:23;0.82;;;0.60;;
33160;SDS011;19522;45.656;11.302;2022-09-21T06:51:48;2.67;;;0.57;;
33160;SDS011;19522;45.656;11.302;2022-09-21T06:54:14;0.40;;;0.38;;
33160;SDS011;19522;45.656;11.302;2022-09-21T06:56:39;0.70;;;0.40;;
33160;SDS011;19522;45.656;11.302;2022-09-21T06:59:08;0.57;;;0.40;;
33160;SDS011;19522;45.656;11.302;2022-09-21T07:01:33;1.30;;;0.63;;
33160;SDS011;19522;45.656;11.302;2022-09-21T07:04:01;0.90;;;0.60;;
33160;SDS011;19522;45.656;11.302;2022-09-21T07:06:27;1.08;;;0.47;;
33160;SDS011;19522;45.656;11.302;2022-09-21T07:08:53;1.20;;;0.57;;
33160;SDS011;19522;45.656;11.302;2022-09-21T07:11:19;1.30;;;0.65;;
33160;SDS011;19522;45.656;11.302;2022-09-21T07:13:45;1.98;;;0.60;;
33160;SDS011;19522;45.656;11.302;2022-09-21T07:16:11;2.80;;;0.50;;
33160;SDS011;19522;45.656;11.302;2022-09-21T07:18:38;1.13;;;0.50;;
33160;SDS011;19522;45.656;11.302;2022-09-21T07:21:05;2.75;;;0.50;;
33160;SDS011;19522;45.656;11.302;2022-09-21T07:23:32;1.17;;;0.50;;
33160;SDS011;19522;45.656;11.302;2022-09-21T07:26:09;2.38;;;0.50;;
33160;SDS011;19522;45.656;11.302;2022-09-21T07:28:37;1.42;;;0.45;;
33160;SDS011;19522;45.656;11.302;2022-09-21T07:31:10;0.73;;;0.50;;
33160;SDS011;19522;45.656;11.302;2022-09-21T07:33:38;1.02;;;0.40;;
33160;SDS011;19522;45.656;11.302;2022-09-21T07:36:04;1.58;;;0.50;;
33160;SDS011;19522;45.656;11.302;2022-09-21T07:38:34;0.52;;;0.35;;
33160;SDS011;19522;45.656;11.302;2022-09-21T07:41:04;2.17;;;0.50;;
33160;SDS011;19522;45.656;11.302;2022-09-21T07:43:31;2.85;;;0.32;;
33160;SDS011;19522;45.656;11.302;2022-09-21T07:45:57;1.13;;;0.50;;
33160;SDS011;19522;45.656;11.302;2022-09-21T07:48:23;0.50;;;0.30;;
33160;SDS011;19522;45.656;11.302;2022-09-21T07:50:49;2.70;;;0.77;;
33160;SDS011;19522;45.656;11.302;2022-09-21T07:53:15;1.38;;;0.38;;
33160;SDS011;19522;45.656;11.302;2022-09-21T07:55:41;1.88;;;0.40;;
33160;SDS011;19522;45.656;11.302;2022-09-21T07:58:07;1.48;;;0.77;;
33160;SDS011;19522;45.656;11.302;2022-09-21T08:00:51;2.47;;;0.40;;
33160;SDS011;19522;45.656;11.302;2022-09-21T08:03:16;2.55;;;0.60;;
33160;SDS011;19522;45.656;11.302;2022-09-21T08:05:42;1.58;;;0.50;;
33160;SDS011;19522;45.656;11.302;2022-09-21T08:08:07;1.30;;;0.43;;
33160;SDS011;19522;45.656;11.302;2022-09-21T08:10:34;2.35;;;0.50;;
33160;SDS011;19522;45.656;11.302;2022-09-21T08:13:01;1.30;;;0.40;;
33160;SDS011;19522;45.656;11.302;2022-09-21T08:15:26;0.63;;;0.30;;
33160;SDS011;19522;45.656;11.302;2022-09-21T08:17:52;3.15;;;0.52;;
33160;SDS011;19522;45.656;11.302;2022-09-21T08:20:18;2.72;;;0.75;;
33160;SDS011;19522;45.656;11.302;2022-09-21T08:22:45;1.10;;;0.38;;
33160;SDS011;19522;45.656;11.302;2022-09-21T08:25:11;1.10;;;0.75;;
33160;SDS011;19522;45.656;11.302;2022-09-21T08:27:37;1.40;;;0.47;;
33160;SDS011;19522;45.656;11.302;2022-09-21T08:30:04;1.42;;;0.50;;
33160;SDS011;19522;45.656;11.302;2022-09-21T08:32:30;1.30;;;0.60;;
33160;SDS011;19522;45.656;11.302;2022-09-21T08:34:56;1.00;;;0.50;;
33160;SDS011;19522;45.656;11.302;2022-09-21T08:37:21;2.22;;;0.55;;
33160;SDS011;19522;45.656;11.302;2022-09-21T08:39:47;2.13;;;0.50;;
33160;SDS011;19522;45.656;11.302;2022-09-21T08:45:03;1.00;;;0.40;;
33160;SDS011;19522;45.656;11.302;2022-09-21T08:50:04;1.65;;;0.35;;
33160;SDS011;19522;45.656;11.302;2022-09-21T08:52:40;1.58;;;0.50;;
33160;SDS011;19522;45.656;11.302;2022-09-21T08:55:06;1.58;;;0.50;;
33160;SDS011;19522;45.656;11.302;2022-09-21T08:57:39;1.53;;;0.30;;
33160;SDS011;19522;45.656;11.302;2022-09-21T09:00:06;1.75;;;0.47;;
33160;SDS011;19522;45.656;11.302;2022-09-21T09:18:54;1.38;;;0.65;;
33160;SDS011;19522;45.656;11.302;2022-09-21T09:21:25;1.08;;;0.50;;
33160;SDS011;19522;45.656;11.302;2022-09-21T09:24:11;0.95;;;0.35;;
33160;SDS011;19522;45.656;11.302;2022-09-21T09:26:52;2.17;;;0.50;;
33160;SDS011;19522;45.656;11.302;2022-09-21T09:32:14;4.00;;;0.70;;
33160;SDS011;19522;45.656;11.302;2022-09-21T09:34:43;3.15;;;0.80;;
33160;SDS011;19522;45.656;11.302;2022-09-21T09:37:16;2.22;;;0.85;;
33160;SDS011;19522;45.656;11.302;2022-09-21T09:39:42;1.45;;;0.50;;
33160;SDS011;19522;45.656;11.302;2022-09-21T09:52:49;1.38;;;0.50;;
33160;SDS011;19522;45.656;11.302;2022-09-21T09:57:54;1.08;;;0.57;;
33160;SDS011;19522;45.656;11.302;2022-09-21T10:00:21;1.27;;;0.52;;
33160;SDS011;19522;45.656;11.302;2022-09-21T10:02:48;1.08;;;0.70;;
33160;SDS011;19522;45.656;11.302;2022-09-21T10:05:19;2.03;;;0.70;;
33160;SDS011;19522;45.656;11.302;2022-09-21T10:07:48;1.80;;;0.60;;
33160;SDS011;19522;45.656;11.302;2022-09-21T10:12:46;1.00;;;0.50;;
33160;SDS011;19522;45.656;11.302;2022-09-21T10:15:12;1.15;;;0.70;;
33160;SDS011;19522;45.656;11.302;2022-09-21T10:17:38;1.80;;;0.77;;
33160;SDS011;19522;45.656;11.302;2022-09-21T10:20:05;2.28;;;0.50;;
33160;SDS011;19522;45.656;11.302;2022-09-21T10:22:32;3.50;;;0.73;;
33160;SDS011;19522;45.656;11.302;2022-09-21T10:24:58;2.08;;;0.60;;
33160;SDS011;19522;45.656;11.302;2022-09-21T10:27:28;3.40;;;0.60;;
33160;SDS011;19522;45.656;11.302;2022-09-21T10:29:58;2.20;;;0.57;;
33160;SDS011;19522;45.656;11.302;2022-09-21T10:32:24;1.42;;;0.60;;
33160;SDS011;19522;45.656;11.302;2022-09-21T10:37:33;2.17;;;0.50;;
33160;SDS011;19522;45.656;11.302;2022-09-21T10:42:47;1.15;;;0.50;;
33160;SDS011;19522;45.656;11.302;2022-09-21T10:47:51;2.05;;;0.80;;
33160;SDS011;19522;45.656;11.302;2022-09-21T10:52:54;1.58;;;1.00;;
33160;SDS011;19522;45.656;11.302;2022-09-21T10:55:24;1.65;;;0.60;;
33160;SDS011;19522;45.656;11.302;2022-09-21T10:57:52;2.80;;;0.93;;
33160;SDS011;19522;45.656;11.302;2022-09-21T11:02:50;3.05;;;1.30;;
33160;SDS011;19522;45.656;11.302;2022-09-21T11:07:51;2.25;;;0.80;;
33160;SDS011;19522;45.656;11.302;2022-09-21T11:21:02;1.58;;;0.60;;
33160;SDS011;19522;45.656;11.302;2022-09-21T11:26:24;1.25;;;0.60;;
33160;SDS011;19522;45.656;11.302;2022-09-21T11:31:36;2.38;;;0.60;;
33160;SDS011;19522;45.656;11.302;2022-09-21T11:37:00;2.83;;;0.65;;
33160;SDS011;19522;45.656;11.302;2022-09-21T11:39:58;4.53;;;0.70;;
33160;SDS011;19522;45.656;11.302;2022-09-21T11:42:44;1.77;;;0.70;;
33160;SDS011;19522;45.656;11.302;2022-09-21T11:45:42;1.88;;;0.70;;
33160;SDS011;19522;45.656;11.302;2022-09-21T11:54:03;2.60;;;0.70;;
33160;SDS011;19522;45.656;11.302;2022-09-21T12:05:14;1.48;;;0.57;;
33160;SDS011;19522;45.656;11.302;2022-09-21T12:07:57;1.27;;;0.60;;
33160;SDS011;19522;45.656;11.302;2022-09-21T12:10:54;4.70;;;0.88;;
33160;SDS011;19522;45.656;11.302;2022-09-21T12:13:52;1.08;;;0.57;;
33160;SDS011;19522;45.656;11.302;2022-09-21T12:16:31;1.00;;;0.40;;
33160;SDS011;19522;45.656;11.302;2022-09-21T12:24:33;2.15;;;0.70;;
33160;SDS011;19522;45.656;11.302;2022-09-21T12:29:49;2.35;;;0.80;;
33160;SDS011;19522;45.656;11.302;2022-09-21T12:35:11;2.60;;;0.77;;
33160;SDS011;19522;45.656;11.302;2022-09-21T12:37:43;2.55;;;0.80;;
33160;SDS011;19522;45.656;11.302;2022-09-21T12:40:17;3.35;;;1.00;;
33160;SDS011;19522;45.656;11.302;2022-09-21T12:43:03;2.08;;;0.80;;
33160;SDS011;19522;45.656;11.302;2022-09-21T12:45:52;3.30;;;0.95;;
33160;SDS011;19522;45.656;11.302;2022-09-21T12:48:32;1.70;;;0.93;;
33160;SDS011;19522;45.656;11.302;2022-09-21T12:51:17;4.68;;;0.98;;
33160;SDS011;19522;45.656;11.302;2022-09-21T12:53:53;1.92;;;0.68;;
33160;SDS011;19522;45.656;11.302;2022-09-21T12:56:36;2.90;;;0.70;;
33160;SDS011;19522;45.656;11.302;2022-09-21T13:05:07;3.45;;;0.77;;
33160;SDS011;19522;45.656;11.302;2022-09-21T13:08:03;4.18;;;0.80;;
33160;SDS011;19522;45.656;11.302;2022-09-21T13:10:36;2.80;;;0.68;;
33160;SDS011;19522;45.656;11.302;2022-09-21T13:13:16;4.07;;;0.88;;
33160;SDS011;19522;45.656;11.302;2022-09-21T13:15:47;1.92;;;0.60;;
33160;SDS011;19522;45.656;11.302;2022-09-21T13:18:24;2.92;;;0.65;;
33160;SDS011;19522;45.656;11.302;2022-09-21T13:20:52;1.90;;;0.65;;
33160;SDS011;19522;45.656;11.302;2022-09-21T13:23:21;1.63;;;0.60;;
33160;SDS011;19522;45.656;11.302;2022-09-21T13:26:06;2.17;;;0.80;;
33160;SDS011;19522;45.656;11.302;2022-09-21T13:36:40;5.53;;;1.45;;
33160;SDS011;19522;45.656;11.302;2022-09-21T13:41:44;2.22;;;0.63;;
33160;SDS011;19522;45.656;11.302;2022-09-21T13:46:51;2.22;;;0.50;;
33160;SDS011;19522;45.656;11.302;2022-09-21T13:49:25;3.10;;;0.80;;
33160;SDS011;19522;45.656;11.302;2022-09-21T13:54:25;1.92;;;0.80;;
33160;SDS011;19522;45.656;11.302;2022-09-21T14:00:01;4.40;;;0.60;;
33160;SDS011;19522;45.656;11.302;2022-09-21T14:02:35;2.20;;;0.70;;
33160;SDS011;19522;45.656;11.302;2022-09-21T14:05:07;5.03;;;0.60;;
33160;SDS011;19522;45.656;11.302;2022-09-21T14:07:53;1.90;;;0.70;;
33160;SDS011;19522;45.656;11.302;2022-09-21T14:10:40;2.35;;;0.50;;
33160;SDS011;19522;45.656;11.302;2022-09-21T14:13:24;3.63;;;0.50;;
33160;SDS011;19522;45.656;11.302;2022-09-21T14:15:54;1.75;;;0.70;;
33160;SDS011;19522;45.656;11.302;2022-09-21T14:18:21;2.25;;;0.73;;
33160;SDS011;19522;45.656;11.302;2022-09-21T14:23:33;1.83;;;0.80;;
33160;SDS011;19522;45.656;11.302;2022-09-21T14:25:59;2.45;;;0.88;;
33160;SDS011;19522;45.656;11.302;2022-09-21T14:28:40;2.40;;;0.68;;
33160;SDS011;19522;45.656;11.302;2022-09-21T14:31:20;3.53;;;0.80;;
33160;SDS011;19522;45.656;11.302;2022-09-21T14:33:51;1.55;;;0.70;;
33160;SDS011;19522;45.656;11.302;2022-09-21T14:36:32;1.30;;;0.60;;
33160;SDS011;19522;45.656;11.302;2022-09-21T14:39:05;3.50;;;0.85;;
33160;SDS011;19522;45.656;11.302;2022-09-21T14:41:41;3.53;;;0.70;;
33160;SDS011;19522;45.656;11.302;2022-09-21T14:44:22;1.85;;;0.65;;
33160;SDS011;19522;45.656;11.302;2022-09-21T15:00:19;2.10;;;0.85;;
33160;SDS011;19522;45.656;11.302;2022-09-21T15:02:46;2.42;;;0.70;;
33160;SDS011;19522;45.656;11.302;2022-09-21T15:22:41;3.85;;;0.80;;
33160;SDS011;19522;45.656;11.302;2022-09-21T15:24:50;1.90;;;0.60;;
33160;SDS011;19522;45.656;11.302;2022-09-21T15:27:21;2.33;;;0.65;;
33160;SDS011;19522;45.656;11.302;2022-09-21T15:29:50;2.53;;;0.73;;
33160;SDS011;19522;45.656;11.302;2022-09-21T15:37:34;3.13;;;0.70;;
33160;SDS011;19522;45.656;11.302;2022-09-21T15:40:02;2.85;;;0.70;;
33160;SDS011;19522;45.656;11.302;2022-09-21T15:42:29;3.22;;;0.70;;
33160;SDS011;19522;45.656;11.302;2022-09-21T15:45:00;1.88;;;0.80;;
33160;SDS011;19522;45.656;11.302;2022-09-21T15:47:46;2.17;;;0.70;;
33160;SDS011;19522;45.656;11.302;2022-09-21T15:50:12;3.08;;;0.60;;
33160;SDS011;19522;45.656;11.302;2022-09-21T15:52:47;1.17;;;0.63;;
33160;SDS011;19522;45.656;11.302;2022-09-21T15:55:21;1.85;;;0.68;;
33160;SDS011;19522;45.656;11.302;2022-09-21T15:57:48;3.00;;;0.60;;
33160;SDS011;19522;45.656;11.302;2022-09-21T16:00:22;4.32;;;0.75;;
33160;SDS011;19522;45.656;11.302;2022-09-21T16:05:31;3.05;;;0.77;;
33160;SDS011;19522;45.656;11.302;2022-09-21T16:08:15;1.73;;;0.77;;
33160;SDS011;19522;45.656;11.302;2022-09-21T16:10:51;1.77;;;0.63;;
33160;SDS011;19522;45.656;11.302;2022-09-21T16:13:17;1.55;;;0.85;;
33160;SDS011;19522;45.656;11.302;2022-09-21T16:16:07;1.50;;;0.80;;
33160;SDS011;19522;45.656;11.302;2022-09-21T16:18:49;1.35;;;0.68;;
33160;SDS011;19522;45.656;11.302;2022-09-21T16:23:44;1.75;;;1.10;;
33160;SDS011;19522;45.656;11.302;2022-09-21T16:26:54;3.85;;;1.20;;
33160;SDS011;19522;45.656;11.302;2022-09-21T16:31:33;2.55;;;1.10;;
33160;SDS011;19522;45.656;11.302;2022-09-21T16:34:04;2.85;;;1.10;;
33160;SDS011;19522;45.656;11.302;2022-09-21T16:36:44;3.45;;;0.85;;
33160;SDS011;19522;45.656;11.302;2022-09-21T16:39:14;5.22;;;1.20;;
33160;SDS011;19522;45.656;11.302;2022-09-21T16:44:15;3.55;;;1.15;;
33160;SDS011;19522;45.656;11.302;2022-09-21T16:46:46;2.30;;;0.90;;
33160;SDS011;19522;45.656;11.302;2022-09-21T16:49:15;0.85;;;0.47;;
33160;SDS011;19522;45.656;11.302;2022-09-21T16:51:46;2.15;;;1.05;;
33160;SDS011;19522;45.656;11.302;2022-09-21T16:54:13;2.83;;;0.77;;
33160;SDS011;19522;45.656;11.302;2022-09-21T16:56:40;1.92;;;0.65;;
33160;SDS011;19522;45.656;11.302;2022-09-21T16:59:13;3.22;;;1.00;;
33160;SDS011;19522;45.656;11.302;2022-09-21T17:01:41;1.95;;;0.77;;
33160;SDS011;19522;45.656;11.302;2022-09-21T17:04:07;2.85;;;0.90;;
33160;SDS011;19522;45.656;11.302;2022-09-21T17:06:37;2.53;;;0.80;;
33160;SDS011;19522;45.656;11.302;2022-09-21T17:09:14;1.85;;;0.80;;
33160;SDS011;19522;45.656;11.302;2022-09-21T17:11:41;2.20;;;0.80;;
33160;SDS011;19522;45.656;11.302;2022-09-21T17:14:10;2.80;;;0.80;;
33160;SDS011;19522;45.656;11.302;2022-09-21T17:16:44;2.53;;;0.95;;
33160;SDS011;19522;45.656;11.302;2022-09-21T17:19:11;1.65;;;0.80;;
33160;SDS011;19522;45.656;11.302;2022-09-21T17:21:37;2.53;;;0.93;;
33160;SDS011;19522;45.656;11.302;2022-09-21T17:24:03;2.58;;;1.10;;
33160;SDS011;19522;45.656;11.302;2022-09-21T17:26:29;2.28;;;0.80;;
33160;SDS011;19522;45.656;11.302;2022-09-21T17:28:56;2.20;;;0.90;;
33160;SDS011;19522;45.656;11.302;2022-09-21T17:31:21;3.60;;;0.95;;
33160;SDS011;19522;45.656;11.302;2022-09-21T17:33:48;2.08;;;0.60;;
33160;SDS011;19522;45.656;11.302;2022-09-21T17:36:16;3.63;;;1.20;;
33160;SDS011;19522;45.656;11.302;2022-09-21T17:38:42;2.60;;;1.38;;
33160;SDS011;19522;45.656;11.302;2022-09-21T17:41:13;2.83;;;0.95;;
33160;SDS011;19522;45.656;11.302;2022-09-21T17:43:58;2.35;;;1.08;;
33160;SDS011;19522;45.656;11.302;2022-09-21T17:49:12;3.75;;;1.48;;
33160;SDS011;19522;45.656;11.302;2022-09-21T17:51:37;5.63;;;1.58;;
33160;SDS011;19522;45.656;11.302;2022-09-21T17:54:22;2.30;;;1.30;;
33160;SDS011;19522;45.656;11.302;2022-09-21T17:56:53;4.30;;;1.63;;
33160;SDS011;19522;45.656;11.302;2022-09-21T17:59:28;4.20;;;1.38;;
33160;SDS011;19522;45.656;11.302;2022-09-21T18:01:57;3.22;;;1.27;;
33160;SDS011;19522;45.656;11.302;2022-09-21T18:04:23;1.85;;;1.00;;
33160;SDS011;19522;45.656;11.302;2022-09-21T18:06:51;2.53;;;1.33;;
33160;SDS011;19522;45.656;11.302;2022-09-21T18:09:17;1.85;;;1.20;;
33160;SDS011;19522;45.656;11.302;2022-09-21T18:17:17;1.87;;;0.90;;
33160;SDS011;19522;45.656;11.302;2022-09-21T18:22:29;2.70;;;1.50;;
33160;SDS011;19522;45.656;11.302;2022-09-21T18:24:59;1.88;;;1.38;;
33160;SDS011;19522;45.656;11.302;2022-09-21T18:27:25;2.65;;;1.60;;
33160;SDS011;19522;45.656;11.302;2022-09-21T18:29:50;2.95;;;1.52;;
33160;SDS011;19522;45.656;11.302;2022-09-21T18:48:51;2.65;;;1.27;;
33160;SDS011;19522;45.656;11.302;2022-09-21T18:54:20;1.52;;;0.80;;
33160;SDS011;19522;45.656;11.302;2022-09-21T18:56:48;1.38;;;0.73;;
33160;SDS011;19522;45.656;11.302;2022-09-21T18:59:14;1.67;;;0.70;;
33160;SDS011;19522;45.656;11.302;2022-09-21T19:01:45;1.98;;;0.70;;
33160;SDS011;19522;45.656;11.302;2022-09-21T19:04:12;2.72;;;1.10;;
33160;SDS011;19522;45.656;11.302;2022-09-21T19:06:40;1.52;;;0.90;;
33160;SDS011;19522;45.656;11.302;2022-09-21T19:20:43;1.98;;;1.00;;